createdAt,value
2023-04-14T00:01:23.722Z,76.89
2023-04-14T00:03:58.048Z,76.94
2023-04-14T00:06:31.013Z,76.37
2023-04-14T00:09:04.453Z,76.79
2023-04-14T00:11:37.314Z,76.10
2023-04-14T00:14:10.702Z,76.01
2023-04-14T00:16:44.568Z,76.23
2023-04-14T00:19:18.686Z,76.23
2023-04-14T00:21:51.441Z,75.78
2023-04-14T00:24:24.205Z,76.09
2023-04-14T00:26:57.347Z,76.33
2023-04-14T00:29:30.158Z,76.06
2023-04-14T00:32:02.998Z,76.32
2023-04-14T00:34:37.497Z,75.88
2023-04-14T00:37:10.577Z,76.42
2023-04-14T00:39:43.616Z,76.74
2023-04-14T00:42:16.865Z,76.04
2023-04-14T00:44:49.977Z,76.16
2023-04-14T00:47:24.042Z,76.43
2023-04-14T00:49:58.229Z,76.36
2023-04-14T00:52:33.049Z,76.78
2023-04-14T00:55:06.764Z,76.71
2023-04-14T00:57:40.172Z,77.12
2023-04-14T01:00:13.851Z,76.50
2023-04-14T01:02:46.787Z,76.50
2023-04-14T01:05:21.560Z,76.89
2023-04-14T01:07:54.478Z,76.59
2023-04-14T01:10:29.861Z,76.73
2023-04-14T01:13:09.698Z,76.84
2023-04-14T01:15:45.032Z,77.46
2023-04-14T01:18:23.467Z,77.07
2023-04-14T01:21:00.548Z,77.57
2023-04-14T01:23:37.026Z,77.46
2023-04-14T01:26:28.133Z,77.62
2023-04-14T01:29:08.999Z,77.87
2023-04-14T01:31:46.131Z,78.01
2023-04-14T01:34:22.054Z,78.03
2023-04-14T01:36:56.685Z,77.58
2023-04-14T01:39:33.007Z,78.12
2023-04-14T01:42:07.791Z,78.01
2023-04-14T01:44:41.650Z,77.92
2023-04-14T01:47:18.927Z,78.18
2023-04-14T01:49:53.871Z,78.15
2023-04-14T01:52:27.835Z,77.95
2023-04-14T01:55:05.800Z,78.12
2023-04-14T01:57:39.649Z,78.01
2023-04-14T02:00:13.705Z,77.83
2023-04-14T02:02:49.459Z,78.06
2023-04-14T02:05:23.449Z,77.79
2023-04-14T02:07:56.721Z,78.06
2023-04-14T02:10:30.411Z,78.12
2023-04-14T02:13:04.144Z,78.05
2023-04-14T02:15:37.125Z,77.91
2023-04-14T02:18:11.444Z,78.10
2023-04-14T02:20:45.772Z,77.69
2023-04-14T02:23:18.500Z,77.84
2023-04-14T02:25:53.940Z,78.02
2023-04-14T02:28:33.607Z,77.92
2023-04-14T02:31:08.786Z,77.84
2023-04-14T02:33:45.050Z,77.48
2023-04-14T02:36:19.205Z,77.52
2023-04-14T02:38:56.688Z,77.96
2023-04-14T02:41:30.224Z,77.89
2023-04-14T02:44:05.135Z,77.86
2023-04-14T02:46:40.590Z,77.82
2023-04-14T02:49:16.156Z,77.92
2023-04-14T02:51:49.770Z,77.75
2023-04-14T02:54:24.182Z,77.57
2023-04-14T02:56:58.443Z,77.29
2023-04-14T02:59:32.573Z,77.79
2023-04-14T03:02:06.389Z,77.33
2023-04-14T03:04:42.235Z,77.30
2023-04-14T03:07:16.047Z,77.54
2023-04-14T03:09:50.704Z,77.69
2023-04-14T03:12:25.557Z,77.79
2023-04-14T03:14:59.435Z,77.71
2023-04-14T03:17:33.784Z,77.36
2023-04-14T03:20:09.340Z,77.84
2023-04-14T03:22:44.218Z,77.71
2023-04-14T03:25:17.007Z,77.60
2023-04-14T03:27:51.038Z,77.47
2023-04-14T03:30:25.326Z,77.56
2023-04-14T03:33:00.773Z,77.82
2023-04-14T03:35:35.494Z,77.22
2023-04-14T03:38:09.218Z,77.48
2023-04-14T03:40:44.351Z,77.31
2023-04-14T03:43:20.253Z,76.86
2023-04-14T03:45:52.936Z,76.85
2023-04-14T03:48:29.902Z,77.00
2023-04-14T03:51:06.134Z,76.66
2023-04-14T03:53:40.896Z,76.75
2023-04-14T03:56:14.527Z,76.57
2023-04-14T03:58:49.554Z,76.10
2023-04-14T04:01:26.138Z,76.01
2023-04-14T04:04:00.956Z,75.81
2023-04-14T04:06:37.102Z,76.13
2023-04-14T04:09:12.846Z,75.65
2023-04-14T04:11:47.608Z,75.43
2023-04-14T04:14:21.899Z,75.00
2023-04-14T04:16:56.470Z,75.41
2023-04-14T04:19:29.894Z,74.99
2023-04-14T04:22:04.759Z,74.90
2023-04-14T04:24:40.360Z,75.01
2023-04-14T04:27:26.690Z,75.19
2023-04-14T04:30:01.321Z,75.11
2023-04-14T04:32:34.065Z,74.84
2023-04-14T04:35:07.418Z,74.83
2023-04-14T04:37:43.707Z,74.52
2023-04-14T04:40:16.792Z,74.70
2023-04-14T04:42:49.567Z,74.52
2023-04-14T04:45:32.774Z,74.29
2023-04-14T04:48:05.753Z,74.37
2023-04-14T04:50:38.587Z,74.62
2023-04-14T04:53:14.143Z,74.38
2023-04-14T04:55:46.999Z,75.07
2023-04-14T04:58:19.786Z,74.73
2023-04-14T05:00:54.503Z,74.83
2023-04-14T05:03:27.794Z,74.72
2023-04-14T05:06:00.629Z,74.93
2023-04-14T05:08:35.014Z,74.81
2023-04-14T05:11:07.745Z,74.81
2023-04-14T05:13:40.513Z,74.33
2023-04-14T05:16:14.789Z,74.99
2023-04-14T05:18:47.535Z,75.20
2023-04-14T05:21:20.449Z,75.00
2023-04-14T05:23:54.693Z,75.26
2023-04-14T05:26:48.994Z,75.04
2023-04-14T05:29:20.360Z,75.46
2023-04-14T05:31:52.993Z,75.66
2023-04-14T05:34:25.720Z,75.63
2023-04-14T05:36:58.373Z,76.07
2023-04-14T05:39:33.127Z,76.08
2023-04-14T05:42:06.122Z,75.78
2023-04-14T05:44:39.316Z,76.64
2023-04-14T05:47:12.001Z,76.63
2023-04-14T05:49:45.120Z,77.48
2023-04-14T05:52:18.027Z,77.69
2023-04-14T05:54:52.190Z,78.25
2023-04-14T05:57:24.894Z,78.19
2023-04-14T05:59:58.415Z,79.13
2023-04-14T06:02:31.301Z,79.25
2023-04-14T06:05:06.968Z,80.17
2023-04-14T06:07:42.062Z,80.01
2023-04-14T06:10:16.409Z,80.23
2023-04-14T06:12:49.234Z,80.14
2023-04-14T06:15:21.909Z,80.23
2023-04-14T06:17:54.746Z,80.43
2023-04-14T06:20:27.444Z,80.69
2023-04-14T06:23:00.971Z,80.77
2023-04-14T06:25:35.355Z,80.90
2023-04-14T06:28:08.185Z,81.07
2023-04-14T06:30:41.283Z,80.83
2023-04-14T06:33:13.954Z,80.89
2023-04-14T06:35:46.905Z,80.55
2023-04-14T06:38:20.400Z,80.81
2023-04-14T06:40:54.674Z,80.63
2023-04-14T06:43:28.962Z,80.66
2023-04-14T06:46:01.897Z,80.63
2023-04-14T06:48:34.577Z,80.81
2023-04-14T06:51:10.603Z,81.16
2023-04-14T06:53:43.757Z,81.32
2023-04-14T06:56:17.836Z,81.27
2023-04-14T06:58:50.591Z,81.59
2023-04-14T07:01:23.936Z,81.33
2023-04-14T07:03:56.969Z,82.06
2023-04-14T07:06:29.655Z,82.04
2023-04-14T07:09:02.359Z,81.76
2023-04-14T07:11:36.433Z,81.78
2023-04-14T07:14:09.098Z,81.59
2023-04-14T07:16:41.727Z,80.93
2023-04-14T07:19:14.512Z,80.02
2023-04-14T07:21:47.265Z,79.53
2023-04-14T07:24:20.111Z,79.12
2023-04-14T07:26:54.270Z,78.90
2023-04-14T07:29:27.426Z,79.18
2023-04-14T07:32:00.384Z,78.85
2023-04-14T07:34:33.936Z,78.84
2023-04-14T07:37:06.750Z,78.96
2023-04-14T07:39:39.818Z,78.86
2023-04-14T07:42:13.899Z,78.66
2023-04-14T07:44:46.872Z,79.01
2023-04-14T07:47:19.579Z,78.90
2023-04-14T07:49:53.198Z,78.63
2023-04-14T07:52:25.983Z,79.19
2023-04-14T07:54:58.682Z,78.87
2023-04-14T07:57:34.312Z,79.22
2023-04-14T08:00:09.668Z,78.12
2023-04-14T08:02:42.469Z,79.03
2023-04-14T08:05:15.297Z,79.59
2023-04-14T08:07:49.571Z,79.76
2023-04-14T08:10:22.427Z,80.14
2023-04-14T08:12:56.561Z,79.97
2023-04-14T08:15:29.339Z,79.40
2023-04-14T08:18:02.105Z,80.24
2023-04-14T08:20:34.852Z,80.22
2023-04-14T08:23:07.450Z,80.06
2023-04-14T08:25:40.153Z,80.86
2023-04-14T08:28:14.245Z,80.16
2023-04-14T08:30:47.771Z,80.36
2023-04-14T08:33:20.457Z,80.84
2023-04-14T08:35:59.331Z,81.16
2023-04-14T08:38:33.217Z,81.75
2023-04-14T08:41:08.586Z,82.04
2023-04-14T08:43:42.625Z,81.32
2023-04-14T08:46:16.659Z,81.43
2023-04-14T08:48:50.692Z,80.32
2023-04-14T08:51:28.381Z,80.16
2023-04-14T08:54:02.354Z,79.99
2023-04-14T08:56:35.845Z,80.18
2023-04-14T08:59:11.409Z,80.37
2023-04-14T09:01:44.614Z,79.91
2023-04-14T09:04:17.630Z,77.18
2023-04-14T09:06:50.454Z,76.58
2023-04-14T09:09:23.651Z,78.40
2023-04-14T09:11:56.465Z,78.25
2023-04-14T09:14:30.540Z,78.05
2023-04-14T09:17:03.322Z,77.78
2023-04-14T09:19:35.918Z,77.91
2023-04-14T09:22:08.753Z,76.33
2023-04-14T09:24:41.564Z,76.80
2023-04-14T09:27:14.523Z,71.07
2023-04-14T09:29:49.444Z,69.87
2023-04-14T09:32:23.092Z,71.43
2023-04-14T09:34:57.782Z,71.53
2023-04-14T09:37:42.436Z,69.43
2023-04-14T09:40:28.675Z,72.72
2023-04-14T09:43:02.080Z,72.53
2023-04-14T09:45:45.915Z,72.30
2023-04-14T09:48:18.578Z,72.34
2023-04-14T09:51:01.038Z,72.29
2023-04-14T09:53:34.399Z,71.79
2023-04-14T09:56:08.409Z,71.22
2023-04-14T09:58:42.212Z,71.19
2023-04-14T10:01:17.919Z,71.24
2023-04-14T10:03:51.169Z,73.56
2023-04-14T10:06:24.471Z,71.91
2023-04-14T10:08:57.539Z,71.35
2023-04-14T10:11:32.809Z,73.16
2023-04-14T10:14:06.732Z,73.46
2023-04-14T10:16:41.542Z,73.64
2023-04-14T10:19:14.751Z,73.52
2023-04-14T10:21:47.444Z,73.15
2023-04-14T10:24:21.248Z,74.23
2023-04-14T10:26:54.608Z,73.80
2023-04-14T10:29:27.798Z,72.22
2023-04-14T10:32:05.430Z,75.25
2023-04-14T10:34:40.544Z,72.21
2023-04-14T10:37:15.086Z,73.41
2023-04-14T10:39:55.185Z,74.26
2023-04-14T10:42:30.976Z,73.64
2023-04-14T10:45:06.095Z,74.96
2023-04-14T10:47:42.569Z,75.24
2023-04-14T10:50:18.131Z,76.97
2023-04-14T10:52:52.135Z,76.30
2023-04-14T10:55:26.057Z,75.31
2023-04-14T10:58:04.797Z,76.00
2023-04-14T11:00:39.038Z,76.37
2023-04-14T11:03:13.935Z,75.26
2023-04-14T11:05:49.360Z,74.99
2023-04-14T11:08:26.411Z,74.64
2023-04-14T11:11:02.871Z,74.29
2023-04-14T11:13:38.341Z,74.53
2023-04-14T11:16:11.385Z,74.62
2023-04-14T11:18:46.522Z,73.51
2023-04-14T11:21:19.222Z,72.00
2023-04-14T11:23:52.020Z,72.38
2023-04-14T11:26:24.935Z,71.56
2023-04-14T11:28:57.840Z,72.31
2023-04-14T11:31:31.428Z,71.02
2023-04-14T11:34:07.077Z,69.33
2023-04-14T11:36:40.134Z,70.75
2023-04-14T11:39:16.382Z,71.36
2023-04-14T11:41:52.475Z,70.90
2023-04-14T11:44:25.938Z,72.29
2023-04-14T11:46:58.807Z,71.48
2023-04-14T11:49:37.078Z,71.87
2023-04-14T11:52:09.884Z,70.86
2023-04-14T11:54:42.625Z,73.27
2023-04-14T11:57:17.561Z,74.28
2023-04-14T11:59:50.776Z,71.61
2023-04-14T12:02:23.759Z,71.92
2023-04-14T12:04:58.825Z,72.32
2023-04-14T12:07:32.238Z,74.33
2023-04-14T12:10:05.670Z,74.37
2023-04-14T12:12:38.455Z,70.27
2023-04-14T12:15:11.630Z,72.25
2023-04-14T12:17:44.459Z,70.13
2023-04-14T12:20:18.834Z,69.65
2023-04-14T12:22:52.235Z,72.02
2023-04-14T12:25:24.966Z,73.24
2023-04-14T12:27:57.822Z,72.63
2023-04-14T12:30:30.455Z,74.65
2023-04-14T12:33:07.702Z,74.19
2023-04-14T12:35:41.863Z,74.27
2023-04-14T12:38:15.118Z,75.26
2023-04-14T12:40:48.540Z,75.05
2023-04-14T12:43:28.639Z,74.24
2023-04-14T12:46:03.745Z,75.47
2023-04-14T12:48:40.320Z,74.48
2023-04-14T12:51:15.107Z,73.28
2023-04-14T12:53:50.206Z,70.52
2023-04-14T12:56:23.589Z,71.07
2023-04-14T12:58:56.226Z,71.11
2023-04-14T13:01:28.943Z,73.45
2023-04-14T13:04:01.823Z,74.86
2023-04-14T13:06:38.903Z,74.88
2023-04-14T13:09:12.000Z,75.48
2023-04-14T13:11:44.611Z,73.75
2023-04-14T13:14:17.628Z,73.10
2023-04-14T13:16:50.371Z,73.68
2023-04-14T13:19:23.336Z,74.67
2023-04-14T13:21:57.498Z,69.89
2023-04-14T13:24:30.206Z,71.76
2023-04-14T13:27:03.106Z,69.09
2023-04-14T13:29:36.265Z,69.61
2023-04-14T13:32:09.802Z,68.40
2023-04-14T13:34:43.628Z,66.67
2023-04-14T13:37:18.113Z,64.96
2023-04-14T13:39:50.986Z,64.82
2023-04-14T13:42:23.592Z,65.93
2023-04-14T13:44:56.500Z,68.51
2023-04-14T13:47:29.243Z,66.92
2023-04-14T13:50:02.571Z,71.67
2023-04-14T13:52:36.882Z,71.15
2023-04-14T13:55:10.740Z,72.87
2023-04-14T13:57:43.393Z,70.53
2023-04-14T14:00:16.466Z,72.92
2023-04-14T14:02:49.656Z,73.81
2023-04-14T14:05:22.435Z,74.05
2023-04-14T14:07:56.976Z,70.99
2023-04-14T14:10:29.731Z,72.18
2023-04-14T14:13:02.610Z,69.14
2023-04-14T14:15:35.947Z,67.03
2023-04-14T14:18:08.752Z,72.00
2023-04-14T14:20:41.984Z,68.74
2023-04-14T14:23:16.251Z,70.73
2023-04-14T14:25:50.245Z,66.99
2023-04-14T14:28:23.139Z,69.39
2023-04-14T14:30:56.132Z,70.63
2023-04-14T14:33:28.970Z,69.53
2023-04-14T14:36:01.751Z,70.28
2023-04-14T14:38:35.793Z,66.99
2023-04-14T14:41:08.651Z,70.46
2023-04-14T14:43:41.276Z,72.88
2023-04-14T14:46:13.991Z,72.96
2023-04-14T14:48:46.688Z,72.30
2023-04-14T14:51:19.465Z,72.64
2023-04-14T14:54:01.516Z,74.47
2023-04-14T14:56:41.293Z,73.50
2023-04-14T14:59:14.284Z,73.45
2023-04-14T15:01:47.417Z,71.48
2023-04-14T15:04:20.360Z,70.95
2023-04-14T15:06:53.115Z,72.69
2023-04-14T15:09:27.240Z,73.31
2023-04-14T15:12:00.071Z,69.17
2023-04-14T15:14:32.740Z,73.25
2023-04-14T15:17:05.427Z,72.39
2023-04-14T15:19:38.256Z,72.72
2023-04-14T15:22:10.936Z,72.75
2023-04-14T15:24:44.978Z,72.22
2023-04-14T15:27:17.609Z,70.54
2023-04-14T15:29:50.586Z,69.56
2023-04-14T15:32:26.570Z,69.89
2023-04-14T15:34:59.265Z,68.92
2023-04-14T15:37:32.268Z,70.02
2023-04-14T15:40:06.958Z,69.50
2023-04-14T15:42:39.610Z,69.65
2023-04-14T15:45:12.679Z,69.55
2023-04-14T15:47:46.295Z,68.57
2023-04-14T15:50:19.312Z,68.37
2023-04-14T15:52:52.196Z,67.95
2023-04-14T15:55:26.545Z,68.33
2023-04-14T15:57:59.655Z,68.22
2023-04-14T16:00:32.821Z,67.98
2023-04-14T16:03:05.702Z,67.99
2023-04-14T16:05:38.480Z,67.27
2023-04-14T16:08:11.429Z,67.75
2023-04-14T16:10:45.560Z,67.67
2023-04-14T16:13:18.253Z,67.70
2023-04-14T16:15:50.981Z,67.70
2023-04-14T16:18:23.916Z,68.40
2023-04-14T16:20:56.585Z,67.88
2023-04-14T16:23:29.502Z,67.41
2023-04-14T16:26:04.051Z,68.02
2023-04-14T16:28:36.866Z,68.27
2023-04-14T16:31:09.534Z,68.15
2023-04-14T16:33:42.281Z,68.85
2023-04-14T16:36:15.013Z,68.27
2023-04-14T16:38:49.258Z,67.75
2023-04-14T16:41:23.469Z,67.34
2023-04-14T16:43:56.166Z,67.42
2023-04-14T16:46:28.861Z,67.38
2023-04-14T16:49:01.935Z,67.12
2023-04-14T16:51:34.766Z,67.00
2023-04-14T16:54:07.551Z,67.54
2023-04-14T16:56:41.716Z,67.42
2023-04-14T16:59:14.372Z,67.45
2023-04-14T17:01:47.173Z,67.73
2023-04-14T17:04:20.262Z,67.43
2023-04-14T17:06:53.181Z,67.17
2023-04-14T17:09:26.173Z,67.36
2023-04-14T17:12:00.584Z,67.24
2023-04-14T17:14:34.427Z,67.28
2023-04-14T17:17:07.871Z,67.26
2023-04-14T17:19:40.932Z,67.50
2023-04-14T17:22:15.254Z,67.35
2023-04-14T17:24:47.918Z,67.62
2023-04-14T17:27:22.308Z,67.58
2023-04-14T17:29:55.131Z,67.78
2023-04-14T17:32:28.031Z,67.35
2023-04-14T17:35:00.817Z,67.52
2023-04-14T17:37:33.953Z,67.64
2023-04-14T17:40:08.212Z,67.33
2023-04-14T17:42:42.344Z,67.42
2023-04-14T17:45:21.539Z,67.18
2023-04-14T17:47:54.779Z,67.08
2023-04-14T17:50:27.682Z,67.06
2023-04-14T17:53:00.415Z,67.28
2023-04-14T17:55:33.152Z,67.29
2023-04-14T17:58:07.133Z,67.01
2023-04-14T18:00:40.227Z,67.34
2023-04-14T18:03:14.531Z,67.52
2023-04-14T18:05:48.396Z,67.40
2023-04-14T18:08:21.051Z,67.40
2023-04-14T18:10:53.688Z,67.06
2023-04-14T18:13:28.420Z,67.23
2023-04-14T18:16:01.400Z,67.09
2023-04-14T18:18:34.148Z,67.32
2023-04-14T18:21:08.040Z,67.43
2023-04-14T18:23:40.748Z,67.14
2023-04-14T18:28:51.636Z,67.28
2023-04-14T18:31:25.243Z,67.57
2023-04-14T18:34:02.900Z,67.59
2023-04-14T18:36:36.562Z,67.70
2023-04-14T18:39:09.177Z,67.25
2023-04-14T18:41:41.884Z,67.19
2023-04-14T18:44:17.058Z,68.04
2023-04-14T18:46:49.915Z,67.71
2023-04-14T18:49:22.809Z,67.64
2023-04-14T18:51:55.876Z,68.03
2023-04-14T18:54:28.604Z,67.95
2023-04-14T18:57:01.321Z,67.87
2023-04-14T18:59:36.176Z,67.82
2023-04-14T19:02:13.593Z,67.56
2023-04-14T19:04:46.615Z,67.77
2023-04-14T19:07:19.567Z,68.40
2023-04-14T19:09:53.031Z,68.45
2023-04-14T19:12:28.617Z,68.15
2023-04-14T19:15:03.545Z,68.50
2023-04-14T19:17:36.462Z,68.79
2023-04-14T19:20:09.743Z,68.78
2023-04-14T19:22:42.445Z,68.69
2023-04-14T19:25:15.607Z,69.01
2023-04-14T19:27:48.287Z,69.28
2023-04-14T19:30:22.887Z,69.61
2023-04-14T19:32:55.561Z,69.41
2023-04-14T19:35:28.263Z,69.67
2023-04-14T19:38:01.267Z,69.67
2023-04-14T19:40:34.151Z,69.75
2023-04-14T19:43:07.082Z,69.90
2023-04-14T19:45:49.690Z,70.52
2023-04-14T19:48:24.311Z,70.17
2023-04-14T19:50:57.920Z,70.74
2023-04-14T19:53:30.861Z,70.03
2023-04-14T19:56:05.568Z,70.24
2023-04-14T19:58:38.258Z,70.63
2023-04-14T20:01:12.967Z,70.64
2023-04-14T20:04:06.328Z,70.41
2023-04-14T20:06:39.475Z,70.18
2023-04-14T20:09:12.291Z,70.06
2023-04-14T20:11:45.646Z,69.87
2023-04-14T20:14:18.459Z,70.31
2023-04-14T20:16:52.554Z,70.28
2023-04-14T20:19:25.279Z,70.33
2023-04-14T20:21:58.061Z,70.19
2023-04-14T20:24:30.785Z,70.18
2023-04-14T20:27:04.372Z,70.17
2023-04-14T20:29:37.116Z,69.95
2023-04-14T20:32:11.544Z,69.89
2023-04-14T20:34:44.303Z,69.89
2023-04-14T20:37:18.270Z,69.80
2023-04-14T20:39:52.660Z,69.86
2023-04-14T20:42:26.096Z,69.62
2023-04-14T20:44:58.933Z,70.00
2023-04-14T20:47:33.184Z,69.90
2023-04-14T20:50:06.578Z,69.82
2023-04-14T20:52:39.737Z,69.91
2023-04-14T20:55:13.537Z,70.30
2023-04-14T20:57:46.504Z,70.34
2023-04-14T21:00:19.232Z,70.58
2023-04-14T21:02:53.866Z,70.25
2023-04-14T21:05:26.924Z,70.61
2023-04-14T21:07:59.752Z,70.21
2023-04-14T21:10:32.438Z,70.35
2023-04-14T21:15:40.331Z,70.71
2023-04-14T21:15:59.807Z,71.13
2023-04-14T21:18:34.114Z,70.92
2023-04-14T21:21:06.796Z,70.49
2023-04-14T21:23:39.503Z,70.71
2023-04-14T21:26:13.324Z,70.99
2023-04-14T21:28:46.166Z,70.73
2023-04-14T21:31:19.027Z,70.45
2023-04-14T21:33:53.082Z,70.66
2023-04-14T21:36:26.095Z,70.62
2023-04-14T21:38:58.799Z,70.36
2023-04-14T21:41:32.628Z,70.67
2023-04-14T21:44:05.257Z,70.38
2023-04-14T21:46:37.906Z,70.44
2023-04-14T21:49:12.497Z,70.29
2023-04-14T21:51:45.528Z,70.30
2023-04-14T21:54:18.212Z,69.94
2023-04-14T21:56:51.361Z,69.75
2023-04-14T21:59:24.352Z,69.92
2023-04-14T22:01:57.563Z,70.07
2023-04-14T22:04:36.507Z,70.27
2023-04-14T22:07:09.526Z,70.39
2023-04-14T22:09:44.231Z,70.35
2023-04-14T22:12:17.155Z,70.02
2023-04-14T22:14:49.928Z,69.83
2023-04-14T22:17:22.873Z,70.12
2023-04-14T22:19:58.184Z,70.51
2023-04-14T22:22:30.898Z,70.26
2023-04-14T22:25:03.993Z,70.48
2023-04-14T22:27:37.010Z,70.50
2023-04-14T22:30:10.896Z,70.23
2023-04-14T22:32:43.608Z,70.14
2023-04-14T22:35:17.596Z,70.54
2023-04-14T22:37:50.602Z,70.16
2023-04-14T22:40:23.338Z,70.25
2023-04-14T22:42:56.347Z,70.08
2023-04-14T22:45:29.065Z,70.38
2023-04-14T22:48:02.459Z,69.91
2023-04-14T22:50:37.108Z,70.38
2023-04-14T22:53:09.806Z,69.94
2023-04-14T22:55:43.501Z,69.95
2023-04-14T22:58:18.866Z,69.83
2023-04-14T23:00:51.868Z,70.01
2023-04-14T23:03:24.703Z,69.35
2023-04-14T23:06:00.122Z,69.75
2023-04-14T23:08:33.014Z,69.78
2023-04-14T23:11:06.137Z,69.17
2023-04-14T23:13:38.963Z,69.15
2023-04-14T23:16:11.841Z,68.83
2023-04-14T23:18:49.495Z,68.78
2023-04-14T23:21:23.624Z,69.21
2023-04-14T23:23:56.533Z,68.82
2023-04-14T23:26:29.569Z,68.43
2023-04-14T23:29:02.803Z,68.87
2023-04-14T23:31:35.957Z,68.41
2023-04-14T23:34:11.076Z,69.20
2023-04-14T23:36:46.563Z,68.58
2023-04-14T23:39:19.699Z,68.42
2023-04-14T23:41:52.405Z,68.90
2023-04-14T23:44:25.615Z,68.82
2023-04-14T23:46:58.339Z,68.93
2023-04-14T23:49:34.422Z,68.58
2023-04-14T23:52:09.629Z,69.08
2023-04-14T23:54:42.710Z,69.00
2023-04-14T23:57:15.381Z,69.37
2023-04-14T23:59:48.083Z,69.39
